KUKT/UKT METAR and TAF weather

Enter ICAO airport designator
Station Type Date Time Source
KUKT METAR 2024/02/26 16:55 UTC NOAA

KUKT 261655Z AUTO VRB05KT 10SM CLR 09/M01 A3004 RMK AO2


Station Type Date Time Source
KUKT Decoded METAR 2024/02/26 16:55 UTC NOAA

Quakertown, Quakertown Airport, PA, United States (KUKT) 40-26-06N 075-22-54W
Feb 26, 2024 - 11:55 AM EST / 2024.02.26 1655 UTC
Wind: Variable at 6 MPH (5 KT):0
Visibility: 10 mile(s):0
Sky conditions: clear
Temperature: 48 F (9 C)
Dew Point: 30 F (-1 C)
Relative Humidity: 49%
Pressure (altimeter): 30.04 in. Hg (1017 hPa)
ob: KUKT 261655Z AUTO VRB05KT 10SM CLR 09/M01 A3004 RMK AO2
cycle: 17

Station Type Date Time Source
KUKT TAF UTC NOAA

Error!

Example: see airport list